sensor_id;sensor_type;location;lat;lon;timestamp;P1;durP1;ratioP1;P2;durP2;ratioP2
65373;SDS011;52070;53.760;9.678;2023-07-31T00:01:21;7.18;;;2.20;;
65373;SDS011;52070;53.760;9.678;2023-07-31T00:03:49;13.32;;;2.38;;
65373;SDS011;52070;53.760;9.678;2023-07-31T00:06:16;11.00;;;2.50;;
65373;SDS011;52070;53.760;9.678;2023-07-31T00:08:43;8.40;;;2.05;;
65373;SDS011;52070;53.760;9.678;2023-07-31T00:11:10;11.25;;;2.50;;
65373;SDS011;52070;53.760;9.678;2023-07-31T00:13:37;14.27;;;2.47;;
65373;SDS011;52070;53.760;9.678;2023-07-31T00:16:04;13.30;;;3.42;;
65373;SDS011;52070;53.760;9.678;2023-07-31T00:18:31;8.48;;;2.78;;
65373;SDS011;52070;53.760;9.678;2023-07-31T00:21:00;17.17;;;2.38;;
65373;SDS011;52070;53.760;9.678;2023-07-31T00:23:27;8.18;;;2.72;;
65373;SDS011;52070;53.760;9.678;2023-07-31T00:25:54;9.85;;;2.40;;
65373;SDS011;52070;53.760;9.678;2023-07-31T00:28:21;15.82;;;2.53;;
65373;SDS011;52070;53.760;9.678;2023-07-31T00:30:48;15.10;;;3.08;;
65373;SDS011;52070;53.760;9.678;2023-07-31T00:33:15;11.30;;;2.40;;
65373;SDS011;52070;53.760;9.678;2023-07-31T00:35:42;12.85;;;2.60;;
65373;SDS011;52070;53.760;9.678;2023-07-31T00:38:11;10.18;;;2.70;;
65373;SDS011;52070;53.760;9.678;2023-07-31T00:40:38;8.50;;;2.90;;
65373;SDS011;52070;53.760;9.678;2023-07-31T00:43:05;10.07;;;2.70;;
65373;SDS011;52070;53.760;9.678;2023-07-31T00:45:32;10.77;;;2.72;;
65373;SDS011;52070;53.760;9.678;2023-07-31T00:47:59;17.50;;;3.13;;
65373;SDS011;52070;53.760;9.678;2023-07-31T00:50:26;13.25;;;3.05;;
65373;SDS011;52070;53.760;9.678;2023-07-31T00:52:54;15.00;;;3.35;;
65373;SDS011;52070;53.760;9.678;2023-07-31T00:55:23;13.57;;;3.15;;
65373;SDS011;52070;53.760;9.678;2023-07-31T00:57:50;10.13;;;3.03;;
65373;SDS011;52070;53.760;9.678;2023-07-31T01:00:18;9.35;;;2.70;;
65373;SDS011;52070;53.760;9.678;2023-07-31T01:02:46;10.93;;;2.90;;
65373;SDS011;52070;53.760;9.678;2023-07-31T01:05:14;11.75;;;2.92;;
65373;SDS011;52070;53.760;9.678;2023-07-31T01:07:42;17.55;;;2.85;;
65373;SDS011;52070;53.760;9.678;2023-07-31T01:10:15;17.80;;;3.10;;
65373;SDS011;52070;53.760;9.678;2023-07-31T01:12:48;14.68;;;3.28;;
65373;SDS011;52070;53.760;9.678;2023-07-31T01:15:17;8.82;;;2.75;;
65373;SDS011;52070;53.760;9.678;2023-07-31T01:17:44;13.75;;;2.80;;
65373;SDS011;52070;53.760;9.678;2023-07-31T01:20:12;12.23;;;2.60;;
65373;SDS011;52070;53.760;9.678;2023-07-31T01:22:59;9.27;;;2.47;;
65373;SDS011;52070;53.760;9.678;2023-07-31T01:25:58;12.82;;;2.85;;
65373;SDS011;52070;53.760;9.678;2023-07-31T01:28:33;14.55;;;2.92;;
65373;SDS011;52070;53.760;9.678;2023-07-31T01:31:10;12.07;;;2.67;;
65373;SDS011;52070;53.760;9.678;2023-07-31T01:33:40;22.10;;;3.00;;
65373;SDS011;52070;53.760;9.678;2023-07-31T01:36:08;15.52;;;2.75;;
65373;SDS011;52070;53.760;9.678;2023-07-31T01:38:35;10.13;;;2.60;;
65373;SDS011;52070;53.760;9.678;2023-07-31T01:41:04;9.35;;;2.50;;
65373;SDS011;52070;53.760;9.678;2023-07-31T01:43:31;11.13;;;2.83;;
65373;SDS011;52070;53.760;9.678;2023-07-31T01:45:58;9.00;;;2.90;;
65373;SDS011;52070;53.760;9.678;2023-07-31T01:48:25;14.82;;;2.70;;
65373;SDS011;52070;53.760;9.678;2023-07-31T01:50:52;13.27;;;2.78;;
65373;SDS011;52070;53.760;9.678;2023-07-31T01:53:19;13.85;;;2.97;;
65373;SDS011;52070;53.760;9.678;2023-07-31T01:55:46;10.02;;;2.80;;
65373;SDS011;52070;53.760;9.678;2023-07-31T01:58:15;11.20;;;2.90;;
65373;SDS011;52070;53.760;9.678;2023-07-31T02:00:42;11.18;;;2.78;;
65373;SDS011;52070;53.760;9.678;2023-07-31T02:03:09;15.70;;;3.00;;
65373;SDS011;52070;53.760;9.678;2023-07-31T02:05:36;9.45;;;2.60;;
65373;SDS011;52070;53.760;9.678;2023-07-31T02:08:10;14.25;;;3.30;;
65373;SDS011;52070;53.760;9.678;2023-07-31T02:10:37;12.15;;;2.60;;
65373;SDS011;52070;53.760;9.678;2023-07-31T02:13:04;10.80;;;2.95;;
65373;SDS011;52070;53.760;9.678;2023-07-31T02:15:32;9.80;;;2.88;;
65373;SDS011;52070;53.760;9.678;2023-07-31T02:17:59;14.85;;;3.35;;
65373;SDS011;52070;53.760;9.678;2023-07-31T02:20:26;8.93;;;3.05;;
65373;SDS011;52070;53.760;9.678;2023-07-31T02:22:53;9.95;;;3.17;;
65373;SDS011;52070;53.760;9.678;2023-07-31T02:25:21;15.00;;;3.92;;
65373;SDS011;52070;53.760;9.678;2023-07-31T02:27:48;17.15;;;3.25;;
65373;SDS011;52070;53.760;9.678;2023-07-31T02:30:15;16.42;;;3.75;;
65373;SDS011;52070;53.760;9.678;2023-07-31T02:32:43;9.30;;;3.42;;
65373;SDS011;52070;53.760;9.678;2023-07-31T02:35:10;13.75;;;3.65;;
65373;SDS011;52070;53.760;9.678;2023-07-31T02:37:40;16.45;;;3.67;;
65373;SDS011;52070;53.760;9.678;2023-07-31T02:40:08;8.77;;;3.75;;
65373;SDS011;52070;53.760;9.678;2023-07-31T02:42:35;12.82;;;3.65;;
65373;SDS011;52070;53.760;9.678;2023-07-31T02:45:02;15.02;;;4.03;;
65373;SDS011;52070;53.760;9.678;2023-07-31T02:47:30;9.90;;;3.97;;
65373;SDS011;52070;53.760;9.678;2023-07-31T02:49:59;12.10;;;4.75;;
65373;SDS011;52070;53.760;9.678;2023-07-31T02:52:26;11.88;;;3.60;;
65373;SDS011;52070;53.760;9.678;2023-07-31T02:54:53;12.95;;;3.67;;
65373;SDS011;52070;53.760;9.678;2023-07-31T02:57:20;10.90;;;3.88;;
65373;SDS011;52070;53.760;9.678;2023-07-31T02:59:47;13.77;;;4.25;;
65373;SDS011;52070;53.760;9.678;2023-07-31T03:02:15;13.88;;;4.30;;
65373;SDS011;52070;53.760;9.678;2023-07-31T03:04:42;18.05;;;4.45;;
65373;SDS011;52070;53.760;9.678;2023-07-31T03:07:10;11.38;;;4.53;;
65373;SDS011;52070;53.760;9.678;2023-07-31T03:09:37;10.43;;;4.13;;
65373;SDS011;52070;53.760;9.678;2023-07-31T03:12:04;13.65;;;4.20;;
65373;SDS011;52070;53.760;9.678;2023-07-31T03:14:32;7.85;;;3.78;;
65373;SDS011;52070;53.760;9.678;2023-07-31T03:16:59;21.15;;;4.03;;
65373;SDS011;52070;53.760;9.678;2023-07-31T03:19:26;11.93;;;4.78;;
65373;SDS011;52070;53.760;9.678;2023-07-31T03:21:56;9.27;;;3.70;;
65373;SDS011;52070;53.760;9.678;2023-07-31T03:24:25;15.27;;;3.85;;
65373;SDS011;52070;53.760;9.678;2023-07-31T03:26:52;10.45;;;3.88;;
65373;SDS011;52070;53.760;9.678;2023-07-31T03:29:19;15.75;;;3.75;;
65373;SDS011;52070;53.760;9.678;2023-07-31T03:31:46;7.63;;;3.97;;
65373;SDS011;52070;53.760;9.678;2023-07-31T03:34:13;7.60;;;3.60;;
65373;SDS011;52070;53.760;9.678;2023-07-31T03:36:40;11.50;;;3.78;;
65373;SDS011;52070;53.760;9.678;2023-07-31T03:39:07;11.30;;;3.72;;
65373;SDS011;52070;53.760;9.678;2023-07-31T03:41:35;11.15;;;3.60;;
65373;SDS011;52070;53.760;9.678;2023-07-31T03:44:03;12.05;;;4.00;;
65373;SDS011;52070;53.760;9.678;2023-07-31T03:46:30;6.50;;;3.40;;
65373;SDS011;52070;53.760;9.678;2023-07-31T03:48:57;8.00;;;3.70;;
65373;SDS011;52070;53.760;9.678;2023-07-31T03:51:24;8.15;;;3.47;;
65373;SDS011;52070;53.760;9.678;2023-07-31T03:53:51;10.55;;;3.70;;
65373;SDS011;52070;53.760;9.678;2023-07-31T03:56:18;14.35;;;4.07;;
65373;SDS011;52070;53.760;9.678;2023-07-31T03:58:47;12.35;;;4.00;;
65373;SDS011;52070;53.760;9.678;2023-07-31T04:01:14;7.88;;;3.67;;
65373;SDS011;52070;53.760;9.678;2023-07-31T04:03:41;8.90;;;3.75;;
65373;SDS011;52070;53.760;9.678;2023-07-31T04:06:08;6.82;;;3.10;;
65373;SDS011;52070;53.760;9.678;2023-07-31T04:08:36;6.18;;;3.60;;
65373;SDS011;52070;53.760;9.678;2023-07-31T04:11:03;8.20;;;3.38;;
65373;SDS011;52070;53.760;9.678;2023-07-31T04:13:30;11.70;;;3.92;;
65373;SDS011;52070;53.760;9.678;2023-07-31T04:15:58;6.72;;;3.65;;
65373;SDS011;52070;53.760;9.678;2023-07-31T04:18:25;8.98;;;4.03;;
65373;SDS011;52070;53.760;9.678;2023-07-31T04:20:52;6.05;;;3.50;;
65373;SDS011;52070;53.760;9.678;2023-07-31T04:23:20;11.38;;;4.40;;
65373;SDS011;52070;53.760;9.678;2023-07-31T04:25:47;9.02;;;4.93;;
65373;SDS011;52070;53.760;9.678;2023-07-31T04:28:14;10.10;;;4.55;;
65373;SDS011;52070;53.760;9.678;2023-07-31T04:30:41;9.60;;;4.38;;
65373;SDS011;52070;53.760;9.678;2023-07-31T04:33:09;9.88;;;4.78;;
65373;SDS011;52070;53.760;9.678;2023-07-31T04:35:36;12.15;;;5.47;;
65373;SDS011;52070;53.760;9.678;2023-07-31T04:38:03;9.55;;;5.47;;
65373;SDS011;52070;53.760;9.678;2023-07-31T04:40:31;8.55;;;5.00;;
65373;SDS011;52070;53.760;9.678;2023-07-31T04:42:58;6.80;;;4.70;;
65373;SDS011;52070;53.760;9.678;2023-07-31T04:45:25;7.07;;;5.57;;
65373;SDS011;52070;53.760;9.678;2023-07-31T04:47:52;9.57;;;5.10;;
65373;SDS011;52070;53.760;9.678;2023-07-31T04:50:20;9.75;;;5.57;;
65373;SDS011;52070;53.760;9.678;2023-07-31T04:52:47;12.05;;;5.47;;
65373;SDS011;52070;53.760;9.678;2023-07-31T04:55:14;8.50;;;4.88;;
65373;SDS011;52070;53.760;9.678;2023-07-31T04:57:42;5.75;;;4.45;;
65373;SDS011;52070;53.760;9.678;2023-07-31T05:00:09;8.10;;;4.30;;
65373;SDS011;52070;53.760;9.678;2023-07-31T05:02:36;7.72;;;4.25;;
65373;SDS011;52070;53.760;9.678;2023-07-31T05:05:04;5.68;;;4.03;;
65373;SDS011;52070;53.760;9.678;2023-07-31T05:07:32;5.85;;;3.53;;
65373;SDS011;52070;53.760;9.678;2023-07-31T05:09:59;4.82;;;3.38;;
65373;SDS011;52070;53.760;9.678;2023-07-31T05:12:26;3.50;;;3.17;;
65373;SDS011;52070;53.760;9.678;2023-07-31T05:14:55;3.78;;;3.22;;
65373;SDS011;52070;53.760;9.678;2023-07-31T05:17:22;4.35;;;3.20;;
65373;SDS011;52070;53.760;9.678;2023-07-31T05:19:49;5.85;;;2.92;;
65373;SDS011;52070;53.760;9.678;2023-07-31T05:22:16;4.80;;;2.67;;
65373;SDS011;52070;53.760;9.678;2023-07-31T05:24:44;2.97;;;2.60;;
65373;SDS011;52070;53.760;9.678;2023-07-31T05:27:11;3.00;;;2.70;;
65373;SDS011;52070;53.760;9.678;2023-07-31T05:29:40;5.43;;;2.80;;
65373;SDS011;52070;53.760;9.678;2023-07-31T05:32:07;4.93;;;2.83;;
65373;SDS011;52070;53.760;9.678;2023-07-31T05:34:34;8.38;;;2.75;;
65373;SDS011;52070;53.760;9.678;2023-07-31T05:37:01;3.92;;;3.10;;
65373;SDS011;52070;53.760;9.678;2023-07-31T05:39:29;4.15;;;3.42;;
65373;SDS011;52070;53.760;9.678;2023-07-31T05:41:57;3.65;;;3.15;;
65373;SDS011;52070;53.760;9.678;2023-07-31T05:44:24;5.68;;;3.08;;
65373;SDS011;52070;53.760;9.678;2023-07-31T05:46:51;3.60;;;3.30;;
65373;SDS011;52070;53.760;9.678;2023-07-31T05:49:18;3.53;;;3.22;;
65373;SDS011;52070;53.760;9.678;2023-07-31T05:51:46;3.92;;;3.42;;
65373;SDS011;52070;53.760;9.678;2023-07-31T05:54:13;6.50;;;3.28;;
65373;SDS011;52070;53.760;9.678;2023-07-31T05:56:40;5.05;;;3.20;;
65373;SDS011;52070;53.760;9.678;2023-07-31T05:59:09;5.38;;;3.30;;
65373;SDS011;52070;53.760;9.678;2023-07-31T06:01:36;3.80;;;3.38;;
65373;SDS011;52070;53.760;9.678;2023-07-31T06:04:03;4.32;;;3.50;;
65373;SDS011;52070;53.760;9.678;2023-07-31T06:06:31;5.85;;;3.63;;
65373;SDS011;52070;53.760;9.678;2023-07-31T06:08:58;3.90;;;3.42;;
65373;SDS011;52070;53.760;9.678;2023-07-31T06:11:25;6.88;;;3.33;;
65373;SDS011;52070;53.760;9.678;2023-07-31T06:13:52;4.43;;;3.75;;
65373;SDS011;52070;53.760;9.678;2023-07-31T06:16:21;4.95;;;3.95;;
65373;SDS011;52070;53.760;9.678;2023-07-31T06:18:48;5.28;;;4.70;;
65373;SDS011;52070;53.760;9.678;2023-07-31T06:21:15;5.28;;;4.03;;
65373;SDS011;52070;53.760;9.678;2023-07-31T06:23:42;5.13;;;4.43;;
65373;SDS011;52070;53.760;9.678;2023-07-31T06:26:09;7.25;;;4.22;;
65373;SDS011;52070;53.760;9.678;2023-07-31T06:28:36;7.35;;;4.57;;
65373;SDS011;52070;53.760;9.678;2023-07-31T06:31:03;4.32;;;3.92;;
65373;SDS011;52070;53.760;9.678;2023-07-31T06:33:32;6.95;;;4.75;;
65373;SDS011;52070;53.760;9.678;2023-07-31T06:35:59;4.68;;;3.95;;
65373;SDS011;52070;53.760;9.678;2023-07-31T06:38:26;4.90;;;3.90;;
65373;SDS011;52070;53.760;9.678;2023-07-31T06:40:53;5.88;;;4.28;;
65373;SDS011;52070;53.760;9.678;2023-07-31T06:43:21;6.82;;;4.22;;
65373;SDS011;52070;53.760;9.678;2023-07-31T06:45:48;4.60;;;4.13;;
65373;SDS011;52070;53.760;9.678;2023-07-31T06:48:16;4.30;;;3.80;;
65373;SDS011;52070;53.760;9.678;2023-07-31T06:50:45;5.07;;;3.92;;
65373;SDS011;52070;53.760;9.678;2023-07-31T06:53:12;4.95;;;3.60;;
65373;SDS011;52070;53.760;9.678;2023-07-31T06:55:39;4.47;;;3.97;;
65373;SDS011;52070;53.760;9.678;2023-07-31T06:58:06;3.78;;;3.47;;
65373;SDS011;52070;53.760;9.678;2023-07-31T07:00:33;7.38;;;3.67;;
65373;SDS011;52070;53.760;9.678;2023-07-31T07:03:00;4.88;;;4.00;;
65373;SDS011;52070;53.760;9.678;2023-07-31T07:05:27;5.03;;;3.75;;
65373;SDS011;52070;53.760;9.678;2023-07-31T07:07:56;5.38;;;3.97;;
65373;SDS011;52070;53.760;9.678;2023-07-31T07:10:23;5.18;;;4.07;;
65373;SDS011;52070;53.760;9.678;2023-07-31T07:12:50;5.97;;;4.40;;
65373;SDS011;52070;53.760;9.678;2023-07-31T07:15:17;4.82;;;4.18;;
65373;SDS011;52070;53.760;9.678;2023-07-31T07:17:44;7.90;;;4.60;;
65373;SDS011;52070;53.760;9.678;2023-07-31T07:20:12;5.13;;;4.60;;
65373;SDS011;52070;53.760;9.678;2023-07-31T07:22:39;6.57;;;5.07;;
65373;SDS011;52070;53.760;9.678;2023-07-31T07:25:09;5.18;;;4.68;;
65373;SDS011;52070;53.760;9.678;2023-07-31T07:27:36;6.40;;;4.72;;
65373;SDS011;52070;53.760;9.678;2023-07-31T07:30:04;5.53;;;4.40;;
65373;SDS011;52070;53.760;9.678;2023-07-31T07:32:32;5.40;;;4.55;;
65373;SDS011;52070;53.760;9.678;2023-07-31T07:34:59;5.22;;;4.72;;
65373;SDS011;52070;53.760;9.678;2023-07-31T07:37:26;5.22;;;4.72;;
65373;SDS011;52070;53.760;9.678;2023-07-31T07:39:53;5.80;;;4.80;;
65373;SDS011;52070;53.760;9.678;2023-07-31T07:42:22;5.93;;;4.40;;
65373;SDS011;52070;53.760;9.678;2023-07-31T07:44:49;5.80;;;5.20;;
65373;SDS011;52070;53.760;9.678;2023-07-31T07:47:16;5.50;;;5.00;;
65373;SDS011;52070;53.760;9.678;2023-07-31T07:49:43;7.05;;;4.97;;
65373;SDS011;52070;53.760;9.678;2023-07-31T07:52:11;5.47;;;4.95;;
65373;SDS011;52070;53.760;9.678;2023-07-31T07:54:38;5.25;;;4.70;;
65373;SDS011;52070;53.760;9.678;2023-07-31T07:57:05;4.95;;;4.55;;
65373;SDS011;52070;53.760;9.678;2023-07-31T07:59:33;5.80;;;4.57;;
65373;SDS011;52070;53.760;9.678;2023-07-31T08:02:00;4.90;;;4.50;;
65373;SDS011;52070;53.760;9.678;2023-07-31T08:04:27;5.13;;;4.63;;
65373;SDS011;52070;53.760;9.678;2023-07-31T08:06:54;6.30;;;4.57;;
65373;SDS011;52070;53.760;9.678;2023-07-31T08:09:22;6.72;;;4.60;;
65373;SDS011;52070;53.760;9.678;2023-07-31T08:11:49;4.85;;;4.45;;
65373;SDS011;52070;53.760;9.678;2023-07-31T08:14:19;5.38;;;4.88;;
65373;SDS011;52070;53.760;9.678;2023-07-31T08:16:47;5.78;;;5.07;;
65373;SDS011;52070;53.760;9.678;2023-07-31T08:19:14;4.63;;;4.13;;
65373;SDS011;52070;53.760;9.678;2023-07-31T08:21:41;4.30;;;3.90;;
65373;SDS011;52070;53.760;9.678;2023-07-31T08:24:08;6.13;;;4.60;;
65373;SDS011;52070;53.760;9.678;2023-07-31T08:26:35;4.82;;;3.97;;
65373;SDS011;52070;53.760;9.678;2023-07-31T08:29:02;7.75;;;4.53;;
65373;SDS011;52070;53.760;9.678;2023-07-31T08:31:30;4.88;;;4.43;;
65373;SDS011;52070;53.760;9.678;2023-07-31T08:33:58;5.60;;;4.28;;
65373;SDS011;52070;53.760;9.678;2023-07-31T08:36:26;4.93;;;4.50;;
65373;SDS011;52070;53.760;9.678;2023-07-31T08:38:53;7.68;;;4.50;;
65373;SDS011;52070;53.760;9.678;2023-07-31T08:41:20;6.30;;;4.22;;
65373;SDS011;52070;53.760;9.678;2023-07-31T08:43:48;6.35;;;4.20;;
65373;SDS011;52070;53.760;9.678;2023-07-31T08:46:16;4.30;;;3.90;;
65373;SDS011;52070;53.760;9.678;2023-07-31T08:48:44;4.97;;;4.47;;
65373;SDS011;52070;53.760;9.678;2023-07-31T08:51:14;4.15;;;3.80;;
65373;SDS011;52070;53.760;9.678;2023-07-31T08:53:42;4.20;;;3.80;;
65373;SDS011;52070;53.760;9.678;2023-07-31T08:56:10;3.88;;;3.47;;
65373;SDS011;52070;53.760;9.678;2023-07-31T08:58:40;5.03;;;3.28;;
65373;SDS011;52070;53.760;9.678;2023-07-31T09:01:08;3.33;;;2.97;;
65373;SDS011;52070;53.760;9.678;2023-07-31T09:03:37;3.10;;;2.90;;
65373;SDS011;52070;53.760;9.678;2023-07-31T09:06:06;2.92;;;2.47;;
65373;SDS011;52070;53.760;9.678;2023-07-31T09:08:35;3.13;;;2.80;;
65373;SDS011;52070;53.760;9.678;2023-07-31T09:11:06;3.60;;;3.30;;
65373;SDS011;52070;53.760;9.678;2023-07-31T09:13:34;2.83;;;2.63;;
65373;SDS011;52070;53.760;9.678;2023-07-31T09:16:01;3.40;;;2.60;;
65373;SDS011;52070;53.760;9.678;2023-07-31T09:18:28;3.78;;;2.70;;
65373;SDS011;52070;53.760;9.678;2023-07-31T09:21:02;3.17;;;2.40;;
65373;SDS011;52070;53.760;9.678;2023-07-31T09:23:44;2.85;;;2.63;;
65373;SDS011;52070;53.760;9.678;2023-07-31T09:26:16;2.30;;;2.10;;
65373;SDS011;52070;53.760;9.678;2023-07-31T09:28:56;2.03;;;1.88;;
65373;SDS011;52070;53.760;9.678;2023-07-31T09:31:31;2.40;;;2.20;;
65373;SDS011;52070;53.760;9.678;2023-07-31T09:33:59;5.40;;;2.22;;
65373;SDS011;52070;53.760;9.678;2023-07-31T09:36:28;2.50;;;2.22;;
65373;SDS011;52070;53.760;9.678;2023-07-31T09:38:59;2.00;;;1.90;;
65373;SDS011;52070;53.760;9.678;2023-07-31T09:41:29;2.53;;;2.08;;
65373;SDS011;52070;53.760;9.678;2023-07-31T09:43:57;3.40;;;2.15;;
65373;SDS011;52070;53.760;9.678;2023-07-31T09:46:26;2.80;;;2.10;;
65373;SDS011;52070;53.760;9.678;2023-07-31T09:49:02;2.88;;;2.40;;
65373;SDS011;52070;53.760;9.678;2023-07-31T09:51:40;2.50;;;2.25;;
65373;SDS011;52070;53.760;9.678;2023-07-31T09:54:15;2.40;;;2.20;;
65373;SDS011;52070;53.760;9.678;2023-07-31T09:56:45;3.15;;;2.22;;
65373;SDS011;52070;53.760;9.678;2023-07-31T10:01:41;4.60;;;2.33;;
65373;SDS011;52070;53.760;9.678;2023-07-31T10:04:09;3.45;;;1.92;;
65373;SDS011;52070;53.760;9.678;2023-07-31T10:06:37;2.28;;;2.08;;
65373;SDS011;52070;53.760;9.678;2023-07-31T10:09:06;2.15;;;1.95;;
65373;SDS011;52070;53.760;9.678;2023-07-31T10:14:06;3.30;;;1.83;;
65373;SDS011;52070;53.760;9.678;2023-07-31T10:16:34;2.58;;;2.38;;
65373;SDS011;52070;53.760;9.678;2023-07-31T10:19:02;2.55;;;1.98;;
65373;SDS011;52070;53.760;9.678;2023-07-31T10:21:29;3.17;;;2.10;;
65373;SDS011;52070;53.760;9.678;2023-07-31T10:26:29;3.33;;;1.83;;
65373;SDS011;52070;53.760;9.678;2023-07-31T10:28:59;1.70;;;1.60;;
65373;SDS011;52070;53.760;9.678;2023-07-31T10:31:26;1.52;;;1.42;;
65373;SDS011;52070;53.760;9.678;2023-07-31T10:33:55;1.63;;;1.50;;
65373;SDS011;52070;53.760;9.678;2023-07-31T10:36:24;1.85;;;1.48;;
65373;SDS011;52070;53.760;9.678;2023-07-31T10:38:52;1.75;;;1.55;;
65373;SDS011;52070;53.760;9.678;2023-07-31T10:41:27;1.90;;;1.50;;
65373;SDS011;52070;53.760;9.678;2023-07-31T10:43:57;2.35;;;1.45;;
65373;SDS011;52070;53.760;9.678;2023-07-31T10:46:26;1.50;;;1.40;;
65373;SDS011;52070;53.760;9.678;2023-07-31T10:48:57;2.97;;;1.60;;
65373;SDS011;52070;53.760;9.678;2023-07-31T10:54:10;1.80;;;1.40;;
65373;SDS011;52070;53.760;9.678;2023-07-31T10:56:38;2.75;;;1.40;;
65373;SDS011;52070;53.760;9.678;2023-07-31T10:59:05;1.42;;;1.33;;
65373;SDS011;52070;53.760;9.678;2023-07-31T11:04:29;1.60;;;1.30;;
65373;SDS011;52070;53.760;9.678;2023-07-31T11:06:58;2.97;;;1.27;;
65373;SDS011;52070;53.760;9.678;2023-07-31T11:09:27;1.15;;;0.80;;
65373;SDS011;52070;53.760;9.678;2023-07-31T11:11:57;2.15;;;0.80;;
65373;SDS011;52070;53.760;9.678;2023-07-31T11:14:25;1.33;;;1.00;;
65373;SDS011;52070;53.760;9.678;2023-07-31T11:16:52;1.40;;;0.90;;
65373;SDS011;52070;53.760;9.678;2023-07-31T11:19:24;0.88;;;0.80;;
65373;SDS011;52070;53.760;9.678;2023-07-31T11:21:51;1.05;;;1.00;;
65373;SDS011;52070;53.760;9.678;2023-07-31T11:24:18;0.90;;;0.90;;
65373;SDS011;52070;53.760;9.678;2023-07-31T11:26:50;1.33;;;1.00;;
65373;SDS011;52070;53.760;9.678;2023-07-31T11:29:18;1.88;;;1.20;;
65373;SDS011;52070;53.760;9.678;2023-07-31T11:31:45;1.95;;;1.38;;
65373;SDS011;52070;53.760;9.678;2023-07-31T11:34:14;0.93;;;0.80;;
65373;SDS011;52070;53.760;9.678;2023-07-31T11:36:53;0.75;;;0.70;;
65373;SDS011;52070;53.760;9.678;2023-07-31T11:39:21;1.85;;;0.85;;
65373;SDS011;52070;53.760;9.678;2023-07-31T11:41:48;1.52;;;0.88;;
65373;SDS011;52070;53.760;9.678;2023-07-31T11:44:15;1.50;;;0.85;;
65373;SDS011;52070;53.760;9.678;2023-07-31T11:46:42;2.45;;;1.00;;
65373;SDS011;52070;53.760;9.678;2023-07-31T11:49:10;0.85;;;0.73;;
65373;SDS011;52070;53.760;9.678;2023-07-31T11:51:37;0.82;;;0.82;;
65373;SDS011;52070;53.760;9.678;2023-07-31T11:54:06;1.73;;;0.75;;
65373;SDS011;52070;53.760;9.678;2023-07-31T11:56:33;1.73;;;0.95;;
65373;SDS011;52070;53.760;9.678;2023-07-31T11:59:00;0.80;;;0.80;;
65373;SDS011;52070;53.760;9.678;2023-07-31T12:01:30;0.60;;;0.60;;
65373;SDS011;52070;53.760;9.678;2023-07-31T12:03:58;1.05;;;0.70;;
65373;SDS011;52070;53.760;9.678;2023-07-31T12:06:32;2.28;;;1.02;;
65373;SDS011;52070;53.760;9.678;2023-07-31T12:09:00;2.38;;;0.70;;
65373;SDS011;52070;53.760;9.678;2023-07-31T12:11:30;1.90;;;0.90;;
65373;SDS011;52070;53.760;9.678;2023-07-31T12:13:57;2.60;;;1.10;;
65373;SDS011;52070;53.760;9.678;2023-07-31T12:16:25;0.82;;;0.82;;
65373;SDS011;52070;53.760;9.678;2023-07-31T12:18:53;1.13;;;0.80;;
65373;SDS011;52070;53.760;9.678;2023-07-31T12:21:20;1.38;;;1.10;;
65373;SDS011;52070;53.760;9.678;2023-07-31T12:23:47;0.93;;;0.90;;
65373;SDS011;52070;53.760;9.678;2023-07-31T12:26:15;4.13;;;0.93;;
65373;SDS011;52070;53.760;9.678;2023-07-31T12:28:44;1.40;;;0.88;;
65373;SDS011;52070;53.760;9.678;2023-07-31T12:31:13;0.70;;;0.70;;
65373;SDS011;52070;53.760;9.678;2023-07-31T12:33:42;2.08;;;1.00;;
65373;SDS011;52070;53.760;9.678;2023-07-31T12:36:11;3.03;;;0.77;;
65373;SDS011;52070;53.760;9.678;2023-07-31T12:38:40;1.83;;;0.90;;
65373;SDS011;52070;53.760;9.678;2023-07-31T12:41:07;1.10;;;0.75;;
65373;SDS011;52070;53.760;9.678;2023-07-31T12:43:35;0.68;;;0.68;;
65373;SDS011;52070;53.760;9.678;2023-07-31T12:46:04;1.42;;;0.70;;
65373;SDS011;52070;53.760;9.678;2023-07-31T12:48:33;2.75;;;0.80;;
65373;SDS011;52070;53.760;9.678;2023-07-31T12:51:00;0.95;;;0.80;;
65373;SDS011;52070;53.760;9.678;2023-07-31T12:53:28;1.48;;;1.00;;
65373;SDS011;52070;53.760;9.678;2023-07-31T12:55:55;1.10;;;0.90;;
65373;SDS011;52070;53.760;9.678;2023-07-31T12:58:22;1.95;;;0.90;;
65373;SDS011;52070;53.760;9.678;2023-07-31T13:00:49;2.60;;;0.70;;
65373;SDS011;52070;53.760;9.678;2023-07-31T13:03:19;1.90;;;1.10;;
65373;SDS011;52070;53.760;9.678;2023-07-31T13:05:46;1.05;;;0.90;;
65373;SDS011;52070;53.760;9.678;2023-07-31T13:08:13;0.98;;;0.98;;
65373;SDS011;52070;53.760;9.678;2023-07-31T13:10:41;1.30;;;1.00;;
65373;SDS011;52070;53.760;9.678;2023-07-31T13:13:08;1.38;;;0.77;;
65373;SDS011;52070;53.760;9.678;2023-07-31T13:15:36;1.50;;;1.00;;
65373;SDS011;52070;53.760;9.678;2023-07-31T13:18:03;1.77;;;0.90;;
65373;SDS011;52070;53.760;9.678;2023-07-31T13:20:32;1.20;;;0.90;;
65373;SDS011;52070;53.760;9.678;2023-07-31T13:22:59;1.33;;;0.90;;
65373;SDS011;52070;53.760;9.678;2023-07-31T13:25:26;1.00;;;0.73;;
65373;SDS011;52070;53.760;9.678;2023-07-31T13:27:54;1.25;;;0.80;;
65373;SDS011;52070;53.760;9.678;2023-07-31T13:30:21;1.05;;;0.70;;
65373;SDS011;52070;53.760;9.678;2023-07-31T13:32:48;2.30;;;0.88;;
65373;SDS011;52070;53.760;9.678;2023-07-31T13:35:16;2.03;;;0.85;;
65373;SDS011;52070;53.760;9.678;2023-07-31T13:37:44;1.20;;;0.95;;
65373;SDS011;52070;53.760;9.678;2023-07-31T13:40:11;1.05;;;0.98;;
65373;SDS011;52070;53.760;9.678;2023-07-31T13:42:38;0.88;;;0.70;;
65373;SDS011;52070;53.760;9.678;2023-07-31T13:45:05;1.75;;;0.90;;
65373;SDS011;52070;53.760;9.678;2023-07-31T13:47:33;0.85;;;0.73;;
65373;SDS011;52070;53.760;9.678;2023-07-31T13:50:00;3.13;;;1.10;;
65373;SDS011;52070;53.760;9.678;2023-07-31T13:52:27;3.08;;;1.10;;
65373;SDS011;52070;53.760;9.678;2023-07-31T13:54:55;1.75;;;0.90;;
65373;SDS011;52070;53.760;9.678;2023-07-31T13:57:22;1.20;;;0.80;;
65373;SDS011;52070;53.760;9.678;2023-07-31T13:59:50;1.05;;;0.70;;
65373;SDS011;52070;53.760;9.678;2023-07-31T14:02:17;1.63;;;1.25;;
65373;SDS011;52070;53.760;9.678;2023-07-31T14:04:44;2.63;;;1.10;;
65373;SDS011;52070;53.760;9.678;2023-07-31T14:07:11;4.53;;;1.45;;
65373;SDS011;52070;53.760;9.678;2023-07-31T14:09:38;3.28;;;1.13;;
65373;SDS011;52070;53.760;9.678;2023-07-31T14:12:07;1.10;;;0.90;;
65373;SDS011;52070;53.760;9.678;2023-07-31T14:14:34;2.58;;;0.80;;
65373;SDS011;52070;53.760;9.678;2023-07-31T14:17:01;1.58;;;0.88;;
65373;SDS011;52070;53.760;9.678;2023-07-31T14:19:28;0.77;;;0.77;;
65373;SDS011;52070;53.760;9.678;2023-07-31T14:21:55;0.88;;;0.70;;
65373;SDS011;52070;53.760;9.678;2023-07-31T14:24:25;1.45;;;1.00;;
65373;SDS011;52070;53.760;9.678;2023-07-31T14:26:52;1.30;;;1.00;;
65373;SDS011;52070;53.760;9.678;2023-07-31T14:29:20;2.47;;;0.88;;
65373;SDS011;52070;53.760;9.678;2023-07-31T14:31:47;1.40;;;0.95;;
65373;SDS011;52070;53.760;9.678;2023-07-31T14:34:14;7.88;;;1.20;;
65373;SDS011;52070;53.760;9.678;2023-07-31T14:36:42;1.48;;;1.05;;
65373;SDS011;52070;53.760;9.678;2023-07-31T14:39:10;1.50;;;1.05;;
65373;SDS011;52070;53.760;9.678;2023-07-31T14:41:37;0.90;;;0.90;;
65373;SDS011;52070;53.760;9.678;2023-07-31T14:44:04;1.92;;;0.90;;
65373;SDS011;52070;53.760;9.678;2023-07-31T14:46:32;0.82;;;0.80;;
65373;SDS011;52070;53.760;9.678;2023-07-31T14:48:59;3.05;;;1.08;;
65373;SDS011;52070;53.760;9.678;2023-07-31T14:51:26;3.53;;;0.68;;
65373;SDS011;52070;53.760;9.678;2023-07-31T14:53:53;0.63;;;0.63;;
65373;SDS011;52070;53.760;9.678;2023-07-31T14:56:21;3.22;;;0.80;;
65373;SDS011;52070;53.760;9.678;2023-07-31T14:58:48;2.03;;;0.90;;
65373;SDS011;52070;53.760;9.678;2023-07-31T15:01:15;0.82;;;0.70;;
65373;SDS011;52070;53.760;9.678;2023-07-31T15:03:43;2.25;;;0.90;;